Airfield :







YOU CAN JOIN US ON...

 
LOGIN :

Register | Disclaimer

   EN    FR    IT 

 









Legend :    VFR   Marginal VFR   IFR   Intensive IFR   Very Intensive IFR
Visi :
Ceiling :
>= 8 km
>= 3000ft
5 to 8 km
1000 to 3000 ft
1500m to 5 km
500 to 1000 ft
800 to 1500m
200 to 500 ft
< 800m
< 200 ft
Symbols :   Thunderstorms  Fog  Heavy snow  Heavy precipitations  Wind > 20 kt






- Airport Elevation : 1709 ft
- IATA code : YKL


CYKL - Schefferville

CURRENT METAR :
  • 200052Z AUTO 35009G15KT 9SM -SN BKN011 OVC018 M00/M01 A2991 RMK SLP157

EXPIRED METARs :
  • 200043Z AUTO 34009G17KT 9SM -SN BKN009 OVC019 M00/M01 A2991 RMK SLP157
  • 200030Z AUTO 34011G19KT 9SM BKN009 OVC090 M00/M01 A2990 RMK SLP156
  • 200000Z AUTO 33010G18KT 9SM -SN BKN009 OVC014 M00/M01 A2990 RMK SLP155
  • 192357Z AUTO 34012G18KT 9SM -SN BKN009 OVC014 M00/M01 A2990 RMK SLP155
  • 192346Z AUTO 33009G17KT 310V010 9SM -RA BKN009 OVC014 00/M01 A2990 RMK SLP156
  • 192330Z AUTO 34008G19KT 7SM OVC010 00/M01 A2990 RMK SLP153
  • 192317Z AUTO 34009G17KT 5SM BR OVC010 00/M01 A2989 RMK SLP152
  • 192300Z AUTO 34010G17KT 3SM BR BKN010 OVC013 00/M00 A2989 RMK SLP150
  • 192257Z AUTO 33012G17KT 5SM BR OVC010 00/M01 A2989 RMK SLP150
  • 192243Z AUTO 35009G19KT 9SM OVC010 00/M01 A2988 RMK SLP148
  • 192238Z AUTO 34011G19KT 9SM -RA OVC010 00/M01 A2988 RMK SLP148
  • 192224Z AUTO 33012G19KT 4SM -SN OVC010 00/M01 A2988 RMK SLP147
  • 192216Z AUTO 33010G17KT 4SM -SN -UP OVC010 00/M00 A2988 RMK SLP147

TAF AMD TAF CYKL
Valid from the 19 at 22:00 until the 20 at 08:00 UTC


192214Z 1922/2008 34010G20KT P6SM OVC012
TEMPO 1922/1924 4SM -RASN
FM200000 34012KT 2SM -SN OVC008
TEMPO 2000/2006 P6SM NSW OVC010
FM200600 34012KT P6SM BKN020 RMK FCST BASED ON AUTO OBS. NXT FCST BY 200200Z



MET'MAP, your aeronautical weather chart ! - Copyright ORBIFLY December 2007 - Disclaimer

ORBIFLY MET'MAP TEAM :

Programming & Development : Alexandra Zaïnal
Concept & Development : Baudouin d'Aumeries
Co-Development & Prog : Marc-Olivier Méhu
Technical & hardware support : Manuel Goepfert

Contact : metmap@orbifly.com




SOURCES & CREDITS :

   NOAA